Hlavní strana
METAR-TAF:

METAR-TAF

Letiště :

Meridian, Mississippi, Spojené státy americké

zeměpisná šířka: 32-32-47N, zeměpisná délka: 088-32-35W, výška: 96 m

Aktuální stav počasí

Zpráva byla vytvořena před 1 hodinou a 2 minutami, v 16:56 UTC
Severní vítr 11 kt
Teplota 12°C
Vlhkost vzduchu 38%
Tlak 1025 hPa
Viditelnost: 16.1 km
Jasno

METAR: KNMM 151656Z 36011KT 10SM CLR 12/M02 A3026 RMK AO2 SLP258 T01221022 $

Čas: 11:58 (17:58 UTC)

Předpověď počasí

Předpověď platná od 15 v 15 UTC do 16 v 15 UTC
Severní vítr 10 kt s nárazy do 20 kt
Viditelnost 10 km a více
Jasno
Od 15 v 2300 UTC
Severoseverozápadní vítr 6 kt
Viditelnost 10 km a více
Jasno

TAF: KNMM 1515/1615 35010G20KT 9999 SKC 510003 522009 522909 QNH3017INS FM152300 34006KT 9999 SKC 500000 QNH3016INS T14/1521Z TM02/1612Z FN20035

Stav a předpovědi počasí z více než 4 000 letišť (zprávy METAR a TAF).

Červené a žluté tečky na mapě představují dostupné meteorologické stanice.

Když kurzor umístíte na tečku, zobrazí se název stanice.

Pak kliknutím zobrazíte stav a předpověď počasí.

Chcete-li změnit mapu, kliknutím na zelené tlačítko se znaménkem +mapu přiblížíte, kliknutím na zelené tlačítko se znaménkem – mapu oddálíte a kliknutím na zelené šipky přejdete na sousední mapy.


METAR-TAF: